首页
METAR-TAF:

METAR-TAF

机场 :

Mosinee, 威斯康辛州, 美国

纬度: 44-47N, 经度: 089-40W, 海拔: 389米

当前天气观测

该预报发布于1小时和2分钟前的15:47 UTC
风速8节,风向西
温度 24°C
湿度 50%
气压 1017 hPa
能見度: 16.1公里
散云层高于5000英尺
多云层高于15000英尺

METAR: KCWA 261547Z 26008KT 10SM SCT050 BKN150 24/13 A3004

时间: 11:49 (16:49 UTC)

预报

该预报发布于5小时和22分钟前的11:27 UTC
预报有效从26日的 12点(UTC)到 27日的 12点(UTC)
风速7节,风向西
能見度: 10公里
少量云层高于6000英尺
从 26日的 1600点(UTC)
风速10节,风向西,有时为17节阵风
能見度: 10公里
散云层高于4500英尺
从 27日的 0000点(UTC)
风速5节,风向西转西南
能見度: 10公里
散云层高于9000英尺

TAF: KCWA 261127Z 2612/2712 27007KT P6SM FEW060 FM261600 27010G17KT P6SM SCT045 FM270000 24005KT P6SM SCT090

超过4000个机场的气象观测和天气预报(METAR&TAF报告)。

可查询的气象台以黄色和红色小点在地图上表示。

将鼠标移到小点上方,可查看气象台名称。

然后点击查看天气观测和预报。

如需切换地图:点击带黑十字的绿色按钮放大地图;点击带横线的绿色按钮缩小地图;或者点击绿色箭头查看邻近地区的地图。


METAR-TAF: